Mission Viejo, California
Current Conditions -  °F | °C
As of 12:53 AM on Monday 24 Nov 2014 (Local Time) from KSNA Reporting Station
Clear Clear  
Wind Chill: 57°   Ceiling: Unl
Heat Index: 57°   Visibility: 10mi
Dew Point: 28°   Wind: 0mph
Humidity: 33%   Direction: NA
Pressure: 30.14"   Gusts: NA
Location:  33.62°N, 117.67°W
Report Text: KSNA 240853Z AUTO 00000KT 10SM CLR 14/M02 A3014 RMK AO2 SLP204 T01391022 50000 TSNO $
Loading
Personal Weather Stations






























Interactive Weather Map New forecast layout! Learn more

10-Day Weather Forecast

Advertisements
Track Severe Weather on mobile